Terminal Aerodrome Forecast
Issued by NWS

Home | Current Version | Previous Version | Graphics & Text | Print | Product List | Glossary On
Versions: 1 2 3 4 5 6 7 8 9 10 11 12 13 14 15 16 17 18 19 20 21 22
000
FTUS43 KBIS 262300
TAFMOT
TAF
KMOT 262320Z 2700/2724 VRB03KT P6SM SCT170
     FM270100 09004KT P6SM BKN180
     FM270500 12008KT P6SM BKN110
     FM271000 15010KT 1SM -SN BKN009
     FM271500 17011KT P6SM OVC025
     FM272000 28009KT P6SM BKN030=

USA.gov is the U.S. government's official web portal to all federal, state and local government web resources and services.